Time;durP1;ratioP1;P1;durP2;ratioP2;P2;SDS_P1;SDS_P2;PMS_P1;PMS_P2;Temp;Humidity;BMP_temperature;BMP_pressure;BME280_temperature;BME280_humidity;BME280_pressure;Samples;Min_cycle;Max_cycle;Signal;HPM_P1;HPM_P2
2021/07/01 00:01:01;;;;;;;1.50;0.80;;;;;;;;;;5113362;28;20462;-71
2021/07/01 00:03:27;;;;;;;1.60;0.87;;;;;;;;;;5101230;28;20955;-71
2021/07/01 00:05:53;;;;;;;1.57;0.83;;;;;;;;;;5092967;28;20396;-71
2021/07/01 00:08:19;;;;;;;2.03;0.90;;;;;;;;;;5083638;28;20421;-71
2021/07/01 00:10:45;;;;;;;1.40;0.80;;;;;;;;;;5072762;28;20405;-71
2021/07/01 00:13:11;;;;;;;1.30;0.77;;;;;;;;;;5087049;28;20770;-71
2021/07/01 00:15:37;;;;;;;2.10;1.07;;;;;;;;;;5113421;28;20439;-71
2021/07/01 00:18:03;;;;;;;1.40;0.80;;;;;;;;;;5096887;28;20502;-71
2021/07/01 00:20:30;;;;;;;1.50;0.90;;;;;;;;;;5112951;28;20815;-71
2021/07/01 00:22:56;;;;;;;1.50;0.80;;;;;;;;;;5104742;28;20428;-70
2021/07/01 00:25:22;;;;;;;2.50;0.80;;;;;;;;;;5093135;28;20445;-71
2021/07/01 00:27:48;;;;;;;1.20;0.77;;;;;;;;;;5094955;28;20964;-71
2021/07/01 00:30:15;;;;;;;1.83;0.93;;;;;;;;;;5113551;28;20892;-71
2021/07/01 00:32:41;;;;;;;1.37;0.73;;;;;;;;;;5110968;28;20903;-71
2021/07/01 00:35:08;;;;;;;1.30;0.80;;;;;;;;;;5112994;28;20415;-71
2021/07/01 00:37:34;;;;;;;1.40;0.80;;;;;;;;;;5110658;28;20896;-70
2021/07/01 00:40:00;;;;;;;1.70;1.00;;;;;;;;;;5115276;28;20821;-71
2021/07/01 00:42:26;;;;;;;1.60;1.20;;;;;;;;;;5115251;28;20407;-71
2021/07/01 00:44:53;;;;;;;1.60;1.00;;;;;;;;;;5096121;28;20544;-71
2021/07/01 00:47:19;;;;;;;1.43;0.87;;;;;;;;;;5096736;28;20475;-71
2021/07/01 00:49:45;;;;;;;2.13;0.87;;;;;;;;;;5114759;28;20419;-70
2021/07/01 00:52:11;;;;;;;1.50;0.90;;;;;;;;;;5117027;28;20398;-70
2021/07/01 00:54:38;;;;;;;1.40;0.80;;;;;;;;;;5079326;28;20452;-71
2021/07/01 00:57:05;;;;;;;2.13;1.07;;;;;;;;;;5096503;28;20940;-71
2021/07/01 00:59:31;;;;;;;1.40;0.90;;;;;;;;;;5081392;28;20473;-71
2021/07/01 01:01:57;;;;;;;1.80;0.97;;;;;;;;;;5075892;28;20443;-71
2021/07/01 01:04:23;;;;;;;36.23;1.90;;;;;;;;;;5106179;28;20447;-70
2021/07/01 01:06:49;;;;;;;1.60;0.90;;;;;;;;;;5116660;28;20506;-71
2021/07/01 01:09:15;;;;;;;2.00;1.20;;;;;;;;;;5114365;28;20419;-71
2021/07/01 01:11:41;;;;;;;1.90;1.30;;;;;;;;;;5116710;28;20760;-71
2021/07/01 01:14:07;;;;;;;2.23;1.10;;;;;;;;;;5088904;28;20448;-71
2021/07/01 01:16:33;;;;;;;4.33;1.10;;;;;;;;;;5075612;28;20429;-70
2021/07/01 01:19:00;;;;;;;1.63;1.00;;;;;;;;;;5075488;28;20424;-70
2021/07/01 01:21:30;;;;;;;1.63;0.97;;;;;;;;;;5075628;28;20491;-70
2021/07/01 01:23:56;;;;;;;2.50;1.20;;;;;;;;;;5081361;28;20452;-71
2021/07/01 01:26:23;;;;;;;1.60;1.07;;;;;;;;;;5075838;28;20777;-71
2021/07/01 01:28:49;;;;;;;1.80;1.10;;;;;;;;;;5084397;28;20933;-71
2021/07/01 01:31:15;;;;;;;2.27;1.53;;;;;;;;;;5093620;28;20419;-71
2021/07/01 01:33:41;;;;;;;1.60;1.00;;;;;;;;;;5086495;28;20849;-71
2021/07/01 01:36:07;;;;;;;1.90;1.10;;;;;;;;;;5075274;28;20452;-71
2021/07/01 01:38:33;;;;;;;2.10;1.10;;;;;;;;;;5080075;28;20446;-71
2021/07/01 01:40:59;;;;;;;1.80;1.10;;;;;;;;;;5088780;28;20456;-71
2021/07/01 01:43:25;;;;;;;2.10;1.40;;;;;;;;;;5093571;28;20428;-71
2021/07/01 01:45:52;;;;;;;2.27;1.43;;;;;;;;;;5073589;28;20419;-71
2021/07/01 01:48:18;;;;;;;1.80;1.20;;;;;;;;;;5081996;28;20968;-72
2021/07/01 01:50:44;;;;;;;1.80;1.10;;;;;;;;;;5093809;28;20416;-71
2021/07/01 01:53:11;;;;;;;1.60;1.10;;;;;;;;;;5094982;28;20424;-71
2021/07/01 01:55:37;;;;;;;1.80;1.20;;;;;;;;;;5112126;28;20787;-71
2021/07/01 01:58:04;;;;;;;1.50;0.97;;;;;;;;;;5115477;28;20408;-71
2021/07/01 02:00:30;;;;;;;1.77;1.03;;;;;;;;;;5077552;28;20457;-71
2021/07/01 02:02:57;;;;;;;1.90;1.03;;;;;;;;;;5085334;28;20424;-71
2021/07/01 02:05:23;;;;;;;1.83;0.97;;;;;;;;;;5093952;28;20473;-70
2021/07/01 02:07:49;;;;;;;1.63;1.10;;;;;;;;;;5102846;28;20427;-71
2021/07/01 02:10:20;;;;;;;1.70;1.10;;;;;;;;;;5112097;28;20423;-71
2021/07/01 02:12:46;;;;;;;1.50;0.90;;;;;;;;;;5113975;28;20403;-71
2021/07/01 02:15:14;;;;;;;2.20;0.80;;;;;;;;;;5113098;28;20435;-71
2021/07/01 02:17:41;;;;;;;2.40;0.83;;;;;;;;;;5115131;27;20484;-70
2021/07/01 02:20:08;;;;;;;1.50;0.80;;;;;;;;;;5112734;28;20936;-71
2021/07/01 02:22:34;;;;;;;1.60;1.00;;;;;;;;;;5114753;28;20407;-71
2021/07/01 02:25:00;;;;;;;1.50;0.93;;;;;;;;;;5088790;28;20441;-70
2021/07/01 02:27:27;;;;;;;1.97;1.23;;;;;;;;;;5076165;28;20966;-71
2021/07/01 02:29:53;;;;;;;1.70;1.00;;;;;;;;;;5093389;28;20951;-71
2021/07/01 02:32:19;;;;;;;1.50;0.90;;;;;;;;;;5092298;28;20505;-72
2021/07/01 02:34:45;;;;;;;1.90;0.90;;;;;;;;;;5102724;28;20442;-71
2021/07/01 02:37:11;;;;;;;1.83;1.17;;;;;;;;;;5114972;28;20410;-71
2021/07/01 02:39:38;;;;;;;2.43;1.10;;;;;;;;;;5096624;28;20945;-71
2021/07/01 02:42:04;;;;;;;1.50;0.80;;;;;;;;;;5105686;28;20498;-71
2021/07/01 02:44:30;;;;;;;2.87;1.60;;;;;;;;;;5112435;28;20786;-71
2021/07/01 02:46:57;;;;;;;1.67;1.00;;;;;;;;;;5114548;28;20415;-71
2021/07/01 02:49:23;;;;;;;15.70;1.77;;;;;;;;;;5101639;28;20420;-71
2021/07/01 02:51:49;;;;;;;2.03;1.37;;;;;;;;;;5073797;28;20409;-71
2021/07/01 02:54:15;;;;;;;3.70;1.30;;;;;;;;;;5078575;28;20453;-71
2021/07/01 02:56:42;;;;;;;4.83;1.47;;;;;;;;;;5091772;28;20523;-71
2021/07/01 02:59:14;;;;;;;2.43;1.30;;;;;;;;;;5089947;28;20512;-71
2021/07/01 03:01:40;;;;;;;2.20;1.13;;;;;;;;;;5072632;28;20459;-71
2021/07/01 03:04:06;;;;;;;2.47;1.83;;;;;;;;;;5073360;28;20505;-71
2021/07/01 03:06:32;;;;;;;1.90;1.17;;;;;;;;;;5092648;28;20498;-71
2021/07/01 03:08:58;;;;;;;2.00;1.20;;;;;;;;;;5087677;28;20498;-71
2021/07/01 03:11:25;;;;;;;1.93;1.50;;;;;;;;;;5090275;28;20428;-70
2021/07/01 03:13:51;;;;;;;1.83;1.20;;;;;;;;;;5092673;28;20447;-71
2021/07/01 03:16:19;;;;;;;1.67;1.20;;;;;;;;;;5089946;28;20428;-71
2021/07/01 03:18:46;;;;;;;1.90;1.47;;;;;;;;;;5093932;28;20400;-71
2021/07/01 03:21:12;;;;;;;1.70;1.13;;;;;;;;;;5091622;28;20455;-71
2021/07/01 03:23:38;;;;;;;2.20;1.67;;;;;;;;;;5092165;28;20463;-71
2021/07/01 03:26:04;;;;;;;1.80;1.23;;;;;;;;;;5083606;28;20429;-71
2021/07/01 03:28:31;;;;;;;2.20;1.50;;;;;;;;;;5073229;28;20393;-71
2021/07/01 03:30:57;;;;;;;1.60;1.00;;;;;;;;;;5088260;28;20427;-70
2021/07/01 03:33:23;;;;;;;5.93;1.83;;;;;;;;;;5113597;28;20415;-71
2021/07/01 03:35:49;;;;;;;1.70;1.20;;;;;;;;;;5104185;28;20416;-71
2021/07/01 03:38:15;;;;;;;2.70;1.83;;;;;;;;;;5093327;28;20404;-71
2021/07/01 03:40:41;;;;;;;2.97;1.57;;;;;;;;;;5081520;28;20533;-71
2021/07/01 03:43:07;;;;;;;5.33;1.20;;;;;;;;;;5073042;28;20906;-71
2021/07/01 03:45:33;;;;;;;2.87;1.60;;;;;;;;;;5079965;28;20818;-71
2021/07/01 03:47:59;;;;;;;1.90;1.53;;;;;;;;;;5113583;28;20400;-71
2021/07/01 03:50:25;;;;;;;2.47;1.60;;;;;;;;;;5106954;28;20438;-71
2021/07/01 03:52:51;;;;;;;2.27;1.27;;;;;;;;;;5079612;28;20436;-71
2021/07/01 03:55:18;;;;;;;1.73;1.37;;;;;;;;;;5086468;28;20411;-71
2021/07/01 03:57:45;;;;;;;3.67;1.40;;;;;;;;;;5109891;28;20395;-71
2021/07/01 04:00:11;;;;;;;2.40;1.50;;;;;;;;;;5090175;28;20465;-71
2021/07/01 04:02:37;;;;;;;2.27;1.07;;;;;;;;;;5073104;28;20902;-70
2021/07/01 04:05:03;;;;;;;2.20;1.43;;;;;;;;;;5072911;28;20416;-71
2021/07/01 04:07:29;;;;;;;1.93;1.47;;;;;;;;;;5072581;28;20416;-71
2021/07/01 04:09:55;;;;;;;2.40;1.67;;;;;;;;;;5073142;28;20397;-71
2021/07/01 04:12:21;;;;;;;2.30;1.70;;;;;;;;;;5108301;28;20434;-71
2021/07/01 04:14:47;;;;;;;2.43;1.60;;;;;;;;;;5099322;28;20452;-71
2021/07/01 04:17:13;;;;;;;2.47;1.40;;;;;;;;;;5112353;28;20938;-71
2021/07/01 04:19:39;;;;;;;2.83;1.80;;;;;;;;;;5116199;28;20391;-70
2021/07/01 04:22:05;;;;;;;2.73;2.03;;;;;;;;;;5084625;28;20559;-71
2021/07/01 04:24:31;;;;;;;2.30;1.47;;;;;;;;;;5075350;28;20465;-71
2021/07/01 04:26:57;;;;;;;5.47;1.83;;;;;;;;;;5089391;28;20477;-71
2021/07/01 04:29:24;;;;;;;2.73;1.57;;;;;;;;;;5096929;28;20392;-71
2021/07/01 04:31:50;;;;;;;2.43;1.70;;;;;;;;;;5084126;28;20452;-71
2021/07/01 04:34:16;;;;;;;3.77;2.20;;;;;;;;;;5076684;28;20452;-71
2021/07/01 04:36:42;;;;;;;3.10;1.93;;;;;;;;;;5076711;28;20428;-71
2021/07/01 04:39:08;;;;;;;3.20;1.83;;;;;;;;;;5076158;28;20417;-71
2021/07/01 04:41:34;;;;;;;2.40;1.57;;;;;;;;;;5076358;28;20547;-71
2021/07/01 04:44:00;;;;;;;2.50;1.70;;;;;;;;;;5076087;28;20941;-70
2021/07/01 04:46:26;;;;;;;3.37;2.00;;;;;;;;;;5090534;28;20420;-70
2021/07/01 04:48:53;;;;;;;2.83;1.70;;;;;;;;;;5116892;28;20441;-70
2021/07/01 04:51:19;;;;;;;3.30;2.63;;;;;;;;;;5114806;28;20806;-70
2021/07/01 04:53:45;;;;;;;2.20;1.67;;;;;;;;;;5116746;28;20430;-70
2021/07/01 04:56:11;;;;;;;2.20;1.57;;;;;;;;;;5107802;28;20431;-70
2021/07/01 04:58:37;;;;;;;3.67;1.70;;;;;;;;;;5096295;28;20771;-70
2021/07/01 05:01:04;;;;;;;3.03;2.00;;;;;;;;;;5093258;28;20467;-70
2021/07/01 05:03:30;;;;;;;2.20;1.47;;;;;;;;;;5096264;28;20419;-70
2021/07/01 05:05:56;;;;;;;2.20;1.43;;;;;;;;;;5093068;28;20464;-70
2021/07/01 05:08:22;;;;;;;3.10;1.70;;;;;;;;;;5074483;28;20409;-70
2021/07/01 05:10:48;;;;;;;2.30;1.70;;;;;;;;;;5076367;28;20401;-71
2021/07/01 05:13:14;;;;;;;1.90;1.57;;;;;;;;;;5095975;28;20789;-70
2021/07/01 05:15:40;;;;;;;2.33;1.40;;;;;;;;;;5095124;28;20396;-71
2021/07/01 05:18:06;;;;;;;3.10;1.87;;;;;;;;;;5095613;28;20412;-71
2021/07/01 05:20:32;;;;;;;2.33;1.57;;;;;;;;;;5097267;28;20527;-71
2021/07/01 05:22:58;;;;;;;2.40;1.57;;;;;;;;;;5094726;28;20416;-71
2021/07/01 05:25:24;;;;;;;2.10;1.40;;;;;;;;;;5095104;28;20393;-70
2021/07/01 05:27:50;;;;;;;2.80;1.83;;;;;;;;;;5111651;28;20419;-70
2021/07/01 05:30:16;;;;;;;3.73;1.97;;;;;;;;;;5116136;28;20805;-70
2021/07/01 05:32:42;;;;;;;3.50;2.47;;;;;;;;;;5113774;28;20475;-71
2021/07/01 05:35:09;;;;;;;2.43;1.70;;;;;;;;;;5116164;28;20411;-71
2021/07/01 05:37:35;;;;;;;2.43;1.47;;;;;;;;;;5113941;28;20776;-72
2021/07/01 05:40:01;;;;;;;2.30;1.60;;;;;;;;;;5115853;28;20419;-71
2021/07/01 05:42:27;;;;;;;4.23;1.20;;;;;;;;;;5098777;28;20467;-71
2021/07/01 05:44:53;;;;;;;2.30;1.47;;;;;;;;;;5095576;28;20419;-71
2021/07/01 05:47:19;;;;;;;2.47;1.60;;;;;;;;;;5093585;28;20515;-71
2021/07/01 05:49:45;;;;;;;3.43;2.03;;;;;;;;;;5095383;28;20400;-71
2021/07/01 05:52:13;;;;;;;3.37;1.90;;;;;;;;;;5084081;28;20478;-71
2021/07/01 05:54:53;;;;;;;3.07;1.80;;;;;;;;;;5087928;28;20875;-71
2021/07/01 05:57:19;;;;;;;2.30;1.50;;;;;;;;;;5114162;28;20431;-70
2021/07/01 05:59:45;;;;;;;3.07;1.80;;;;;;;;;;5115630;28;20404;-71
2021/07/01 06:02:11;;;;;;;3.83;1.40;;;;;;;;;;5113665;28;20467;-71
2021/07/01 06:04:38;;;;;;;2.20;1.57;;;;;;;;;;5115819;28;20456;-71
2021/07/01 06:07:05;;;;;;;2.53;1.70;;;;;;;;;;5095137;28;20431;-71
2021/07/01 06:09:31;;;;;;;1.93;1.47;;;;;;;;;;5075066;28;20912;-71
2021/07/01 06:12:00;;;;;;;3.90;2.00;;;;;;;;;;5090571;28;20916;-71
2021/07/01 06:14:28;;;;;;;2.70;1.90;;;;;;;;;;5115275;28;20882;-72
2021/07/01 06:16:56;;;;;;;2.77;1.90;;;;;;;;;;5098954;28;20429;-71
2021/07/01 06:19:22;;;;;;;4.07;2.00;;;;;;;;;;5074461;28;20898;-71
2021/07/01 06:21:49;;;;;;;2.60;1.80;;;;;;;;;;5080189;28;20456;-71
2021/07/01 06:24:15;;;;;;;4.77;1.80;;;;;;;;;;5094646;28;20423;-71
2021/07/01 06:26:42;;;;;;;2.90;1.70;;;;;;;;;;5098300;28;20415;-71
2021/07/01 06:29:09;;;;;;;2.33;1.60;;;;;;;;;;5087524;28;20429;-71
2021/07/01 06:31:35;;;;;;;3.40;2.07;;;;;;;;;;5074482;28;20436;-71
2021/07/01 06:34:02;;;;;;;3.03;1.83;;;;;;;;;;5072905;28;20437;-71
2021/07/01 06:36:29;;;;;;;2.67;2.00;;;;;;;;;;5079282;28;20428;-71
2021/07/01 06:38:57;;;;;;;2.70;1.60;;;;;;;;;;5113234;28;20410;-71
2021/07/01 06:41:26;;;;;;;4.20;2.00;;;;;;;;;;5094206;28;20513;-71
2021/07/01 06:43:53;;;;;;;2.60;1.73;;;;;;;;;;5100109;28;20447;-71
2021/07/01 06:46:19;;;;;;;3.23;2.27;;;;;;;;;;5091884;28;20405;-71
2021/07/01 06:48:47;;;;;;;3.07;2.10;;;;;;;;;;5094179;28;20404;-71
2021/07/01 06:51:14;;;;;;;2.73;1.90;;;;;;;;;;5084367;28;20413;-72
2021/07/01 06:53:41;;;;;;;3.97;2.70;;;;;;;;;;5080352;28;20442;-71
2021/07/01 06:56:07;;;;;;;2.20;1.60;;;;;;;;;;5093572;28;20927;-71
2021/07/01 06:58:33;;;;;;;3.77;2.20;;;;;;;;;;5093936;28;20439;-71
2021/07/01 07:00:59;;;;;;;3.03;1.60;;;;;;;;;;5093548;28;20464;-71
2021/07/01 07:03:26;;;;;;;3.10;2.40;;;;;;;;;;5090108;28;20440;-70
2021/07/01 07:05:53;;;;;;;2.73;2.07;;;;;;;;;;5093800;28;20420;-71
2021/07/01 07:08:19;;;;;;;3.63;1.87;;;;;;;;;;5099970;28;20533;-71
2021/07/01 07:10:46;;;;;;;2.40;1.73;;;;;;;;;;5093127;28;20476;-71
2021/07/01 07:13:12;;;;;;;2.60;1.90;;;;;;;;;;5097746;28;20473;-71
2021/07/01 07:15:39;;;;;;;3.00;2.10;;;;;;;;;;5091777;28;20558;-71
2021/07/01 07:18:18;;;;;;;2.93;1.77;;;;;;;;;;5106876;28;20426;-71
2021/07/01 07:20:44;;;;;;;3.60;2.00;;;;;;;;;;5094040;28;20939;-71
2021/07/01 07:23:16;;;;;;;2.53;1.30;;;;;;;;;;5107260;28;20432;-71
2021/07/01 07:25:42;;;;;;;2.57;1.70;;;;;;;;;;5098170;28;20557;-70
2021/07/01 07:28:10;;;;;;;3.93;1.73;;;;;;;;;;5091578;28;20428;-71
2021/07/01 07:30:36;;;;;;;2.57;1.67;;;;;;;;;;5092243;28;21184;-70
2021/07/01 07:33:04;;;;;;;2.20;1.43;;;;;;;;;;5089523;28;20428;-71
2021/07/01 07:35:30;;;;;;;4.40;1.30;;;;;;;;;;5078582;28;20455;-71
2021/07/01 07:37:56;;;;;;;3.47;1.40;;;;;;;;;;5089255;28;20439;-71
2021/07/01 07:40:22;;;;;;;2.07;1.37;;;;;;;;;;5092022;28;20519;-71
2021/07/01 07:42:48;;;;;;;2.40;1.60;;;;;;;;;;5103347;28;20502;-70
2021/07/01 07:45:15;;;;;;;2.03;1.13;;;;;;;;;;5077212;28;20445;-71
2021/07/01 07:47:41;;;;;;;4.97;1.20;;;;;;;;;;5079274;28;20448;-71
2021/07/01 07:50:09;;;;;;;3.10;1.70;;;;;;;;;;5086808;28;20416;-71
2021/07/01 07:52:35;;;;;;;1.90;1.20;;;;;;;;;;5089504;28;20974;-71
2021/07/01 07:55:03;;;;;;;2.00;1.20;;;;;;;;;;5092077;28;20440;-70
2021/07/01 07:57:30;;;;;;;2.00;1.20;;;;;;;;;;5091868;28;20439;-71
2021/07/01 07:59:58;;;;;;;4.03;1.67;;;;;;;;;;5092101;28;20451;-71
2021/07/01 08:02:42;;;;;;;2.90;1.20;;;;;;;;;;5089149;28;20473;-70
2021/07/01 08:05:08;;;;;;;2.17;1.47;;;;;;;;;;5090845;28;20423;-70
2021/07/01 08:07:36;;;;;;;1.90;1.10;;;;;;;;;;5092899;28;20416;-70
2021/07/01 08:10:08;;;;;;;1.77;1.20;;;;;;;;;;5092074;28;20506;-65
2021/07/01 08:12:35;;;;;;;1.63;1.10;;;;;;;;;;5092799;28;20431;-65
2021/07/01 08:15:02;;;;;;;2.50;1.53;;;;;;;;;;5091162;28;20875;-64
2021/07/01 08:17:28;;;;;;;2.10;1.30;;;;;;;;;;5085521;28;20420;-66
2021/07/01 08:19:55;;;;;;;1.80;1.20;;;;;;;;;;5076392;28;20431;-67
2021/07/01 08:22:22;;;;;;;1.83;1.07;;;;;;;;;;5084372;28;20459;-68
2021/07/01 08:24:50;;;;;;;2.00;1.27;;;;;;;;;;5082275;28;20440;-67
2021/07/01 08:27:18;;;;;;;2.37;1.40;;;;;;;;;;5090471;28;20481;-68
2021/07/01 08:29:45;;;;;;;3.33;1.50;;;;;;;;;;5087945;28;20432;-70
2021/07/01 08:32:12;;;;;;;3.20;1.37;;;;;;;;;;5090250;28;20428;-69
2021/07/01 08:34:42;;;;;;;2.70;1.37;;;;;;;;;;5091192;28;20523;-69
2021/07/01 08:37:08;;;;;;;3.87;1.40;;;;;;;;;;5086203;28;20419;-68
2021/07/01 08:39:35;;;;;;;1.90;1.17;;;;;;;;;;5090436;28;20935;-68
2021/07/01 08:42:05;;;;;;;2.30;1.40;;;;;;;;;;5089120;28;20460;-70
2021/07/01 08:44:51;;;;;;;2.13;1.33;;;;;;;;;;5099792;28;20446;-70
2021/07/01 08:47:19;;;;;;;2.00;1.23;;;;;;;;;;5086795;28;20535;-71
2021/07/01 08:49:52;;;;;;;2.10;1.30;;;;;;;;;;5092732;28;20773;-70
2021/07/01 08:52:21;;;;;;;2.40;1.40;;;;;;;;;;5088599;28;20446;-69
2021/07/01 08:54:48;;;;;;;3.43;1.37;;;;;;;;;;5092193;28;20443;-74
2021/07/01 08:57:15;;;;;;;3.03;2.00;;;;;;;;;;5087033;28;20424;-72
2021/07/01 08:59:44;;;;;;;1.90;1.30;;;;;;;;;;5085539;28;20471;-76
2021/07/01 09:02:12;;;;;;;3.60;1.67;;;;;;;;;;5092569;28;20454;-74
2021/07/01 09:04:47;;;;;;;2.60;1.90;;;;;;;;;;5091090;28;20451;-75
2021/07/01 09:07:16;;;;;;;2.60;1.57;;;;;;;;;;5093018;28;20495;-73
2021/07/01 09:09:43;;;;;;;2.20;1.40;;;;;;;;;;5092757;28;20498;-71
2021/07/01 09:12:09;;;;;;;2.50;1.40;;;;;;;;;;5091071;28;20428;-70
2021/07/01 09:14:36;;;;;;;3.80;1.60;;;;;;;;;;5098445;28;20594;-73
2021/07/01 09:17:07;;;;;;;1.70;1.30;;;;;;;;;;5094491;28;20505;-72
2021/07/01 09:19:33;;;;;;;2.40;1.70;;;;;;;;;;5094044;28;20511;-73
2021/07/01 09:22:01;;;;;;;2.47;1.50;;;;;;;;;;5094793;28;20971;-68
2021/07/01 09:24:28;;;;;;;2.20;1.40;;;;;;;;;;5095342;28;20458;-69
2021/07/01 09:26:57;;;;;;;3.00;2.07;;;;;;;;;;5089950;28;20424;-73
2021/07/01 09:29:23;;;;;;;2.30;1.40;;;;;;;;;;5088645;28;20427;-71
2021/07/01 09:31:50;;;;;;;2.70;1.97;;;;;;;;;;5092041;28;20438;-72
2021/07/01 09:34:16;;;;;;;2.90;1.90;;;;;;;;;;5093843;28;20459;-68
2021/07/01 09:36:43;;;;;;;3.40;2.00;;;;;;;;;;5095559;28;20416;-73
2021/07/01 09:39:10;;;;;;;3.20;2.23;;;;;;;;;;5094424;28;20444;-73
2021/07/01 09:41:36;;;;;;;3.50;2.20;;;;;;;;;;5092830;28;20447;-72
2021/07/01 09:44:02;;;;;;;3.90;2.10;;;;;;;;;;5095016;28;20448;-75
2021/07/01 09:46:30;;;;;;;3.63;2.00;;;;;;;;;;5093709;28;21025;-72
2021/07/01 09:48:58;;;;;;;2.53;1.83;;;;;;;;;;5094122;28;20424;-74
2021/07/01 09:51:26;;;;;;;2.73;1.93;;;;;;;;;;5094390;28;20529;-74
2021/07/01 09:53:53;;;;;;;3.20;1.70;;;;;;;;;;5095223;28;20448;-72
2021/07/01 09:56:23;;;;;;;3.10;1.70;;;;;;;;;;5093442;28;20405;-72
2021/07/01 09:58:51;;;;;;;2.47;1.63;;;;;;;;;;5097516;28;20503;-74
2021/07/01 10:01:24;;;;;;;3.50;1.30;;;;;;;;;;5092586;28;20466;-73
2021/07/01 10:03:52;;;;;;;3.93;2.30;;;;;;;;;;5092815;28;20525;-74
2021/07/01 10:06:18;;;;;;;2.60;2.00;;;;;;;;;;5089718;28;20424;-75
2021/07/01 10:08:44;;;;;;;2.60;1.80;;;;;;;;;;5091539;28;20514;-73
2021/07/01 10:11:11;;;;;;;2.40;1.53;;;;;;;;;;5090413;28;20459;-74
2021/07/01 10:13:37;;;;;;;2.10;1.83;;;;;;;;;;5094303;28;20477;-70
2021/07/01 10:16:04;;;;;;;3.30;1.93;;;;;;;;;;5092593;28;21005;-73
2021/07/01 10:18:40;;;;;;;3.63;2.40;;;;;;;;;;5097195;28;20890;-74
2021/07/01 10:21:13;;;;;;;3.80;1.70;;;;;;;;;;5093113;28;20535;-73
2021/07/01 10:23:39;;;;;;;2.10;1.33;;;;;;;;;;5085863;28;20444;-72
2021/07/01 10:26:13;;;;;;;4.23;2.13;;;;;;;;;;5091028;28;20477;-72
2021/07/01 10:28:40;;;;;;;3.20;1.90;;;;;;;;;;5084515;28;20420;-74
2021/07/01 10:31:12;;;;;;;2.30;1.57;;;;;;;;;;5088412;28;20836;-74
2021/07/01 10:33:39;;;;;;;3.47;1.93;;;;;;;;;;5091594;28;20443;-74
2021/07/01 10:36:06;;;;;;;2.63;1.87;;;;;;;;;;5092129;28;20459;-74
2021/07/01 10:38:50;;;;;;;2.60;2.00;;;;;;;;;;5088083;28;20428;-74
2021/07/01 10:41:26;;;;;;;2.60;1.97;;;;;;;;;;5089393;28;20527;-72
2021/07/01 10:43:52;;;;;;;3.37;1.90;;;;;;;;;;5093283;28;20443;-72
2021/07/01 10:46:18;;;;;;;2.43;1.60;;;;;;;;;;5092134;28;20416;-73
2021/07/01 10:48:54;;;;;;;2.60;1.70;;;;;;;;;;5090591;28;20505;-74
2021/07/01 10:51:21;;;;;;;1.87;1.30;;;;;;;;;;5091428;28;20400;-73
2021/07/01 10:53:47;;;;;;;2.70;1.80;;;;;;;;;;5089560;28;20444;-72
2021/07/01 10:56:16;;;;;;;3.10;1.67;;;;;;;;;;5092681;28;20793;-73
2021/07/01 10:58:43;;;;;;;3.07;1.80;;;;;;;;;;5091855;28;20479;-73
2021/07/01 11:01:09;;;;;;;2.63;1.50;;;;;;;;;;5087838;28;20452;-71
2021/07/01 11:03:35;;;;;;;2.80;1.90;;;;;;;;;;5085394;28;21666;-71
2021/07/01 11:06:03;;;;;;;1.80;1.20;;;;;;;;;;5085944;28;20450;-71
2021/07/01 11:08:33;;;;;;;2.67;1.60;;;;;;;;;;5082714;28;20432;-75
2021/07/01 11:11:02;;;;;;;4.13;3.70;;;;;;;;;;5086798;28;20508;-74
2021/07/01 11:13:29;;;;;;;2.53;1.60;;;;;;;;;;5086626;28;20856;-73
2021/07/01 11:16:07;;;;;;;2.20;1.63;;;;;;;;;;5088567;28;20420;-73
2021/07/01 11:18:34;;;;;;;3.30;1.83;;;;;;;;;;5090158;28;20953;-74
2021/07/01 11:21:10;;;;;;;2.53;1.87;;;;;;;;;;5086735;28;20816;-73
2021/07/01 11:23:36;;;;;;;2.97;1.87;;;;;;;;;;5087272;28;20812;-73
2021/07/01 11:26:02;;;;;;;2.60;1.90;;;;;;;;;;5091443;28;20909;-72
2021/07/01 11:28:29;;;;;;;3.40;2.20;;;;;;;;;;5090341;28;20435;-73
2021/07/01 11:31:02;;;;;;;3.17;2.20;;;;;;;;;;5092188;28;20494;-73
2021/07/01 11:33:31;;;;;;;3.83;2.07;;;;;;;;;;5090200;28;20494;-73
2021/07/01 11:36:14;;;;;;;4.00;1.97;;;;;;;;;;5092351;28;20821;-74
2021/07/01 11:38:40;;;;;;;3.00;1.90;;;;;;;;;;5090462;28;20540;-73
2021/07/01 11:41:06;;;;;;;3.43;1.87;;;;;;;;;;5088895;28;20848;-72
2021/07/01 11:43:34;;;;;;;2.93;2.27;;;;;;;;;;5093455;28;20589;-72
2021/07/01 11:46:00;;;;;;;4.50;2.70;;;;;;;;;;5094068;28;20419;-73
2021/07/01 11:48:29;;;;;;;3.70;2.50;;;;;;;;;;5086514;28;20428;-72
2021/07/01 11:50:56;;;;;;;4.37;2.67;;;;;;;;;;5085013;28;20427;-73
2021/07/01 11:53:23;;;;;;;3.60;2.30;;;;;;;;;;5091278;28;20472;-72
2021/07/01 11:55:51;;;;;;;3.23;2.53;;;;;;;;;;5089109;28;20459;-73
2021/07/01 11:58:17;;;;;;;5.23;2.80;;;;;;;;;;5091333;28;20420;-73
2021/07/01 12:00:44;;;;;;;3.70;2.50;;;;;;;;;;5088296;28;20467;-73
2021/07/01 12:03:10;;;;;;;4.70;2.30;;;;;;;;;;5089162;28;20531;-73
2021/07/01 12:05:41;;;;;;;2.80;1.97;;;;;;;;;;5088575;28;20420;-73
2021/07/01 12:08:07;;;;;;;2.80;2.10;;;;;;;;;;5090902;28;20408;-73
2021/07/01 12:10:33;;;;;;;2.80;1.93;;;;;;;;;;5088369;28;20512;-73
2021/07/01 12:12:59;;;;;;;3.70;2.37;;;;;;;;;;5088989;28;20428;-73
2021/07/01 12:15:27;;;;;;;3.20;2.30;;;;;;;;;;5100774;28;20427;-74
2021/07/01 12:18:00;;;;;;;3.50;1.93;;;;;;;;;;5091714;28;20944;-74
2021/07/01 12:20:28;;;;;;;3.20;2.37;;;;;;;;;;5087021;28;20431;-74
2021/07/01 12:22:54;;;;;;;3.63;2.10;;;;;;;;;;5088862;28;20423;-74
2021/07/01 12:25:26;;;;;;;4.53;2.70;;;;;;;;;;5085858;28;20543;-73
2021/07/01 12:28:04;;;;;;;4.13;2.10;;;;;;;;;;5091339;28;20512;-73
2021/07/01 12:30:54;;;;;;;2.20;1.80;;;;;;;;;;5089097;28;20530;-73
2021/07/01 12:33:31;;;;;;;2.80;2.20;;;;;;;;;;5090180;28;20817;-73
2021/07/01 12:36:06;;;;;;;3.57;2.00;;;;;;;;;;5092453;28;20435;-69
2021/07/01 12:38:32;;;;;;;2.67;1.77;;;;;;;;;;5095047;28;20426;-72
2021/07/01 12:41:00;;;;;;;3.30;2.03;;;;;;;;;;5093362;28;20459;-73
2021/07/01 12:43:47;;;;;;;3.57;1.93;;;;;;;;;;5095422;28;20901;-71
2021/07/01 12:46:33;;;;;;;3.57;2.03;;;;;;;;;;5089498;28;20420;-72
2021/07/01 12:48:59;;;;;;;2.33;1.87;;;;;;;;;;5097526;28;20511;-73
2021/07/01 12:51:43;;;;;;;2.10;1.60;;;;;;;;;;5098274;28;20458;-76
2021/07/01 12:54:15;;;;;;;3.00;1.73;;;;;;;;;;5092888;28;20486;-75
2021/07/01 12:56:42;;;;;;;2.70;1.90;;;;;;;;;;5096612;28;20422;-73
2021/07/01 12:59:08;;;;;;;2.47;1.90;;;;;;;;;;5093518;28;20469;-73
2021/07/01 13:01:34;;;;;;;3.10;1.73;;;;;;;;;;5097265;28;20884;-73
2021/07/01 13:04:00;;;;;;;4.00;1.97;;;;;;;;;;5094498;28;20523;-72
2021/07/01 13:06:26;;;;;;;2.30;1.80;;;;;;;;;;5090908;28;20519;-72
2021/07/01 13:08:53;;;;;;;4.10;2.00;;;;;;;;;;5090782;28;20447;-71
2021/07/01 13:11:19;;;;;;;2.63;2.03;;;;;;;;;;5083244;28;20427;-70
2021/07/01 13:13:45;;;;;;;2.80;1.90;;;;;;;;;;5091074;28;20534;-72
2021/07/01 13:16:12;;;;;;;2.97;1.90;;;;;;;;;;5091190;28;20875;-70
2021/07/01 13:18:38;;;;;;;2.83;1.70;;;;;;;;;;5084349;28;20431;-71
2021/07/01 13:21:10;;;;;;;3.03;2.00;;;;;;;;;;5090479;28;20824;-72
2021/07/01 13:23:36;;;;;;;6.00;2.20;;;;;;;;;;5093199;28;20546;-74
2021/07/01 13:26:15;;;;;;;3.10;2.27;;;;;;;;;;5096128;28;20419;-68
2021/07/01 13:28:41;;;;;;;3.40;2.00;;;;;;;;;;5087510;28;20960;-73
2021/07/01 13:31:07;;;;;;;2.57;1.73;;;;;;;;;;5090498;28;20812;-73
2021/07/01 13:33:33;;;;;;;2.67;1.97;;;;;;;;;;5093573;28;20431;-74
2021/07/01 13:35:59;;;;;;;3.20;2.43;;;;;;;;;;5094926;28;20915;-76
2021/07/01 13:38:26;;;;;;;2.90;1.90;;;;;;;;;;5085428;28;20427;-74
2021/07/01 13:40:53;;;;;;;3.60;2.83;;;;;;;;;;5095665;28;20470;-74
2021/07/01 13:43:20;;;;;;;2.70;1.90;;;;;;;;;;5091125;28;20480;-69
2021/07/01 13:45:51;;;;;;;2.97;1.90;;;;;;;;;;5093853;28;20423;-73
2021/07/01 13:48:17;;;;;;;2.83;1.93;;;;;;;;;;5093552;28;20408;-75
2021/07/01 13:50:44;;;;;;;6.60;2.10;;;;;;;;;;5092638;28;20930;-75
2021/07/01 13:53:22;;;;;;;3.07;1.90;;;;;;;;;;5099102;28;20415;-74
2021/07/01 13:55:48;;;;;;;3.73;2.50;;;;;;;;;;5083780;28;20493;-70
2021/07/01 13:58:18;;;;;;;4.00;2.20;;;;;;;;;;5087629;28;20411;-68
2021/07/01 14:00:45;;;;;;;4.20;2.17;;;;;;;;;;5085141;28;20424;-75
2021/07/01 14:03:16;;;;;;;9.10;2.40;;;;;;;;;;5093521;28;21051;-75
2021/07/01 14:05:43;;;;;;;3.63;2.40;;;;;;;;;;5086180;28;20427;-74
2021/07/01 14:08:21;;;;;;;3.30;2.07;;;;;;;;;;5091168;28;20436;-72
2021/07/01 14:10:55;;;;;;;2.70;2.10;;;;;;;;;;5093524;28;20955;-69
2021/07/01 14:13:21;;;;;;;3.33;2.10;;;;;;;;;;5095768;28;20439;-71
2021/07/01 14:15:47;;;;;;;2.63;2.10;;;;;;;;;;5092049;28;20428;-72
2021/07/01 14:18:14;;;;;;;4.20;1.97;;;;;;;;;;5092305;28;20817;-70
2021/07/01 14:20:40;;;;;;;3.23;2.37;;;;;;;;;;5091780;28;20436;-70
2021/07/01 14:23:21;;;;;;;2.90;2.00;;;;;;;;;;5093913;28;20909;-70
2021/07/01 14:25:48;;;;;;;3.90;2.13;;;;;;;;;;5095942;28;20438;-71
2021/07/01 14:28:15;;;;;;;3.03;1.93;;;;;;;;;;5093507;28;20474;-68
2021/07/01 14:30:44;;;;;;;3.03;2.07;;;;;;;;;;5094206;28;20750;-72
2021/07/01 14:33:29;;;;;;;4.00;2.27;;;;;;;;;;5091487;28;20454;-65
2021/07/01 14:36:03;;;;;;;3.47;2.10;;;;;;;;;;5091283;28;21066;-69
2021/07/01 14:38:30;;;;;;;4.83;2.73;;;;;;;;;;5093475;28;20407;-72
2021/07/01 14:40:58;;;;;;;5.40;2.83;;;;;;;;;;5098595;28;20477;-71
2021/07/01 14:43:30;;;;;;;4.40;2.77;;;;;;;;;;5092226;28;20428;-68
2021/07/01 14:46:15;;;;;;;3.67;2.87;;;;;;;;;;5090449;28;20756;-68